Time;durP1;ratioP1;P1;durP2;ratioP2;P2;SDS_P1;SDS_P2;PMS_P1;PMS_P2;Temp;Humidity;BMP_temperature;BMP_pressure;BME280_temperature;BME280_humidity;BME280_pressure;Samples;Min_cycle;Max_cycle;Signal;HPM_P1;HPM_P2
2024/02/26 00:01:38;;;;;;;10.73;5.65;;;;;;;9.73;100.00;98265.56;5067658;28;20064;-64
2024/02/26 00:04:05;;;;;;;14.38;6.00;;;;;;;9.72;100.00;98263.97;5065603;28;20052;-65
2024/02/26 00:06:33;;;;;;;13.93;6.28;;;;;;;9.98;100.00;98266.75;5065077;28;20056;-65
2024/02/26 00:09:02;;;;;;;14.10;5.10;;;;;;;9.88;100.00;98278.38;5066523;28;20063;-65
2024/02/26 00:11:30;;;;;;;11.52;5.32;;;;;;;9.74;100.00;98272.66;5068530;28;20056;-68
2024/02/26 00:13:57;;;;;;;9.93;5.10;;;;;;;9.56;100.00;98274.28;5063754;28;20060;-69
2024/02/26 00:16:28;;;;;;;11.52;4.82;;;;;;;9.74;100.00;98269.91;5048144;28;20044;-68
2024/02/26 00:18:56;;;;;;;12.70;4.95;;;;;;;9.82;100.00;98282.59;5065924;28;20567;-69
2024/02/26 00:21:23;;;;;;;9.70;4.70;;;;;;;9.60;100.00;98277.09;5066670;28;20041;-68
2024/02/26 00:23:53;;;;;;;14.32;5.30;;;;;;;9.55;100.00;98278.22;5048789;28;20049;-68
2024/02/26 00:26:20;;;;;;;12.55;5.63;;;;;;;9.73;100.00;98284.78;5067691;28;20071;-68
2024/02/26 00:28:48;;;;;;;13.13;5.30;;;;;;;9.62;100.00;98291.28;5066421;28;20068;-67
2024/02/26 00:31:16;;;;;;;11.05;4.85;;;;;;;9.92;100.00;98295.72;5061687;28;20056;-68
2024/02/26 00:33:43;;;;;;;7.88;4.50;;;;;;;9.77;100.00;98293.91;5046538;28;20053;-69
2024/02/26 00:36:11;;;;;;;10.85;4.90;;;;;;;9.83;100.00;98289.66;5047757;28;20049;-64
2024/02/26 00:38:40;;;;;;;14.13;5.38;;;;;;;9.98;100.00;98291.50;5047520;28;20067;-66
2024/02/26 00:41:08;;;;;;;12.48;5.32;;;;;;;10.11;100.00;98297.66;5051355;28;20053;-66
2024/02/26 00:43:40;;;;;;;11.15;4.85;;;;;;;10.03;100.00;98293.16;5052970;28;20059;-64
2024/02/26 00:46:07;;;;;;;11.75;4.53;;;;;;;9.94;100.00;98301.66;5050627;28;20052;-65
2024/02/26 00:48:35;;;;;;;14.30;4.68;;;;;;;10.08;100.00;98307.41;5063593;28;20068;-64
2024/02/26 00:51:07;;;;;;;11.52;4.65;;;;;;;10.04;100.00;98306.53;5070345;28;20052;-64
2024/02/26 00:53:34;;;;;;;12.02;4.47;;;;;;;10.14;100.00;98302.41;5049936;28;20064;-64
2024/02/26 00:56:02;;;;;;;10.38;4.38;;;;;;;10.05;100.00;98307.31;5033354;28;20067;-66
2024/02/26 00:58:30;;;;;;;18.60;4.78;;;;;;;9.88;100.00;98316.09;5059212;28;20052;-65
2024/02/26 01:00:57;;;;;;;13.00;4.20;;;;;;;9.68;100.00;98311.78;5070461;28;20056;-65
2024/02/26 01:03:25;;;;;;;10.73;4.50;;;;;;;9.89;100.00;98303.91;5070758;28;20484;-65
2024/02/26 01:05:52;;;;;;;9.15;4.03;;;;;;;9.94;100.00;98307.16;5053028;28;20499;-65
2024/02/26 01:08:24;;;;;;;10.82;4.13;;;;;;;9.99;100.00;98314.28;5071709;28;20527;-65
2024/02/26 01:10:52;;;;;;;10.10;3.75;;;;;;;9.94;100.00;98315.41;5070161;28;20056;-65
2024/02/26 01:13:20;;;;;;;9.57;3.45;;;;;;;10.01;100.00;98315.53;5069314;28;20040;-64
2024/02/26 01:15:47;;;;;;;9.40;3.10;;;;;;;10.22;100.00;98320.59;5069816;28;20640;-66
2024/02/26 01:18:15;;;;;;;8.07;3.50;;;;;;;10.19;100.00;98319.41;5070958;28;20403;-65
2024/02/26 01:20:43;;;;;;;9.30;3.78;;;;;;;10.32;100.00;98317.22;5070094;28;20565;-64
2024/02/26 01:23:10;;;;;;;11.93;3.75;;;;;;;10.44;100.00;98322.53;5069630;28;20048;-65
2024/02/26 01:25:40;;;;;;;;;;;;;;;10.33;100.00;98329.81;5070868;28;20044;-65
2024/02/26 01:28:08;;;;;;;12.88;3.47;;;;;;;10.32;100.00;98332.94;5071394;28;19925;-64
2024/02/26 01:30:36;;;;;;;11.52;3.90;;;;;;;10.23;100.00;98325.72;5070072;28;20052;-64
2024/02/26 01:33:07;;;;;;;13.85;4.25;;;;;;;10.28;100.00;98327.38;5069828;28;20051;-65
2024/02/26 01:35:35;;;;;;;12.38;4.82;;;;;;;10.23;100.00;98324.16;5067902;28;20067;-65
2024/02/26 01:38:03;;;;;;;14.05;4.25;;;;;;;10.32;100.00;98327.44;5037209;28;20061;-66
2024/02/26 01:40:31;;;;;;;10.60;3.75;;;;;;;10.31;100.00;98325.84;5071410;28;20412;-65
2024/02/26 01:42:59;;;;;;;14.15;4.20;;;;;;;10.36;100.00;98339.28;5069754;28;20059;-66
2024/02/26 01:45:28;;;;;;;11.23;3.90;;;;;;;10.23;100.00;98342.22;5071380;28;20052;-66
2024/02/26 01:47:56;;;;;;;12.02;3.88;;;;;;;10.33;100.00;98337.28;5068852;28;20059;-66
2024/02/26 01:50:25;;;;;;;10.38;3.38;;;;;;;10.35;100.00;98344.00;5069969;28;20059;-65
2024/02/26 01:52:53;;;;;;;13.18;3.60;;;;;;;10.36;100.00;98347.53;5036087;28;20068;-64
2024/02/26 01:55:22;;;;;;;10.38;3.50;;;;;;;10.36;100.00;98344.78;5070363;28;20053;-65
2024/02/26 01:57:51;;;;;;;19.23;4.10;;;;;;;10.32;100.00;98347.47;5069184;28;20045;-65
2024/02/26 02:00:20;;;;;;;9.37;3.37;;;;;;;10.31;100.00;98345.91;5068962;28;20087;-66
2024/02/26 02:02:48;;;;;;;15.82;3.67;;;;;;;10.29;100.00;98350.19;5069012;28;20333;-65
2024/02/26 02:05:19;;;;;;;14.30;4.05;;;;;;;10.47;100.00;98351.25;5070238;28;20068;-65
2024/02/26 02:07:48;;;;;;;13.35;3.05;;;;;;;10.51;100.00;98350.16;5070634;28;20510;-65
2024/02/26 02:10:18;;;;;;;16.83;3.50;;;;;;;10.65;100.00;98355.06;5068776;28;20142;-65
2024/02/26 02:12:45;;;;;;;16.73;3.43;;;;;;;10.45;100.00;98359.09;5067473;28;20056;-64
2024/02/26 02:15:13;;;;;;;10.48;3.10;;;;;;;10.50;100.00;98356.81;5066993;28;20056;-63
2024/02/26 02:17:40;;;;;;;16.98;3.50;;;;;;;10.57;100.00;98359.69;5068683;28;20091;-64
2024/02/26 02:20:09;;;;;;;25.20;3.55;;;;;;;10.60;100.00;98356.16;5067991;28;20783;-64
2024/02/26 02:22:36;;;;;;;21.25;3.75;;;;;;;10.64;100.00;98361.72;5066892;28;20116;-64
2024/02/26 02:25:04;;;;;;;15.48;3.53;;;;;;;10.61;100.00;98357.78;5069142;28;20064;-65
2024/02/26 02:27:32;;;;;;;14.75;4.30;;;;;;;10.64;100.00;98362.53;5067761;28;20571;-64
2024/02/26 02:30:00;;;;;;;18.48;3.60;;;;;;;10.66;100.00;98362.97;5031138;28;20056;-65
2024/02/26 02:32:29;;;;;;;15.32;3.47;;;;;;;10.69;100.00;98364.97;5050362;28;20057;-64
2024/02/26 02:34:56;;;;;;;19.35;4.32;;;;;;;10.61;100.00;98370.75;5050830;28;20467;-64
2024/02/26 02:37:24;;;;;;;14.75;3.70;;;;;;;10.70;100.00;98374.81;5057149;28;20053;-64
2024/02/26 02:39:53;;;;;;;14.48;3.13;;;;;;;10.61;100.00;98371.53;5063713;28;20064;-65
2024/02/26 02:42:20;;;;;;;16.30;2.70;;;;;;;10.61;100.00;98366.03;5049887;28;20057;-65
2024/02/26 02:44:48;;;;;;;20.35;3.67;;;;;;;10.58;100.00;98371.50;5064822;28;20052;-65
2024/02/26 02:47:15;;;;;;;16.80;3.15;;;;;;;10.41;100.00;98383.78;5068898;28;20057;-64
2024/02/26 02:49:43;;;;;;;16.98;3.38;;;;;;;10.53;100.00;98383.59;5068223;28;20467;-65
2024/02/26 02:52:10;;;;;;;17.80;3.28;;;;;;;10.60;100.00;98383.69;5069421;28;20799;-64
2024/02/26 02:54:40;;;;;;;20.20;3.90;;;;;;;10.81;100.00;98384.03;5069215;28;20056;-64
2024/02/26 02:57:10;;;;;;;16.48;3.50;;;;;;;10.59;100.00;98384.06;5068181;28;20056;-65
2024/02/26 02:59:39;;;;;;;19.90;4.25;;;;;;;10.51;100.00;98374.94;5069207;28;20049;-65
2024/02/26 03:02:06;;;;;;;13.13;2.95;;;;;;;10.41;100.00;98378.28;5068726;28;20070;-63
2024/02/26 03:04:34;;;;;;;18.55;3.55;;;;;;;10.48;100.00;98383.91;5068749;28;20059;-63
2024/02/26 03:07:01;;;;;;;22.27;3.30;;;;;;;10.45;100.00;98387.41;5069415;28;20055;-65
2024/02/26 03:09:29;;;;;;;23.13;3.55;;;;;;;10.40;100.00;98389.66;5067726;28;20057;-64
2024/02/26 03:11:56;;;;;;;17.77;3.10;;;;;;;10.65;100.00;98390.88;5069603;28;20055;-64
2024/02/26 03:14:25;;;;;;;17.85;3.45;;;;;;;10.44;100.00;98385.81;5065635;28;20056;-64
2024/02/26 03:16:55;;;;;;;21.33;3.83;;;;;;;10.19;100.00;98396.41;5068757;28;20052;-65
2024/02/26 03:19:22;;;;;;;21.48;3.17;;;;;;;10.29;100.00;98394.22;5068952;28;20063;-66
2024/02/26 03:21:51;;;;;;;22.95;3.78;;;;;;;10.37;100.00;98395.91;5068151;28;20048;-65
2024/02/26 03:24:19;;;;;;;19.52;3.13;;;;;;;10.60;100.00;98394.72;5050335;28;20056;-65
2024/02/26 03:26:46;;;;;;;23.15;4.00;;;;;;;10.55;100.00;98400.53;5051358;28;20057;-64
2024/02/26 03:29:13;;;;;;;16.13;3.38;;;;;;;10.51;100.00;98407.97;5030731;28;20048;-64
2024/02/26 03:31:41;;;;;;;28.27;4.57;;;;;;;10.23;100.00;98405.50;5067051;28;20509;-64
2024/02/26 03:34:08;;;;;;;18.55;2.85;;;;;;;10.26;100.00;98406.75;5076321;28;20605;-63
2024/02/26 03:36:36;;;;;;;18.65;3.67;;;;;;;10.25;100.00;98409.88;5068348;28;20045;-65
2024/02/26 03:39:07;;;;;;;23.27;3.50;;;;;;;10.26;100.00;98415.00;5068605;28;20474;-64
2024/02/26 03:41:35;;;;;;;19.20;3.47;;;;;;;10.28;100.00;98415.44;5068275;28;20610;-65
2024/02/26 03:44:02;;;;;;;19.50;4.00;;;;;;;10.49;100.00;98418.53;5066960;28;20074;-65
2024/02/26 03:46:30;;;;;;;26.38;4.15;;;;;;;10.57;100.00;98416.69;5068387;28;20381;-65
2024/02/26 03:48:58;;;;;;;19.92;3.35;;;;;;;10.52;100.00;98415.03;5066740;28;20052;-65
2024/02/26 03:51:28;;;;;;;20.10;3.78;;;;;;;10.64;100.00;98425.03;5046351;28;20065;-66
2024/02/26 03:53:55;;;;;;;22.03;3.83;;;;;;;10.56;100.00;98424.16;5059115;28;20590;-64
2024/02/26 03:56:23;;;;;;;18.85;3.10;;;;;;;10.23;100.00;98431.44;5065783;28;20926;-65
2024/02/26 03:58:50;;;;;;;21.20;3.05;;;;;;;10.34;100.00;98440.69;5068044;28;20040;-64
2024/02/26 04:01:17;;;;;;;19.08;3.40;;;;;;;10.34;100.00;98446.19;5066156;28;20069;-65
2024/02/26 04:03:45;;;;;;;20.33;3.33;;;;;;;10.41;100.00;98441.59;5068332;28;20549;-64
2024/02/26 04:06:15;;;;;;;19.63;3.97;;;;;;;10.54;100.00;98443.00;5065830;28;20056;-64
2024/02/26 04:08:42;;;;;;;19.40;3.75;;;;;;;10.67;100.00;98452.63;5068270;28;20507;-65
2024/02/26 04:11:10;;;;;;;21.58;3.40;;;;;;;10.49;100.00;98448.81;5068072;28;20396;-64
2024/02/26 04:13:40;;;;;;;16.25;3.60;;;;;;;10.41;100.00;98444.34;5066378;28;20079;-64
2024/02/26 04:16:07;;;;;;;;;;;;;;;10.13;100.00;98452.88;5066890;28;20060;-64
2024/02/26 04:18:35;;;;;;;19.63;3.42;;;;;;;10.35;100.00;98454.06;5067885;28;19924;-65
2024/02/26 04:21:02;;;;;;;24.73;3.70;;;;;;;10.12;100.00;98462.31;5068050;28;20060;-64
2024/02/26 04:23:33;;;;;;;15.50;2.90;;;;;;;10.34;100.00;98468.19;5067019;28;20411;-64
2024/02/26 04:26:00;;;;;;;19.42;3.38;;;;;;;10.63;100.00;98465.56;5067697;28;20048;-65
2024/02/26 04:28:29;;;;;;;20.70;3.40;;;;;;;10.58;100.00;98478.84;5068176;28;20062;-64
2024/02/26 04:30:56;;;;;;;20.42;3.47;;;;;;;10.49;100.00;98470.84;5050174;28;20044;-63
2024/02/26 04:33:24;;;;;;;18.20;3.58;;;;;;;10.49;100.00;98468.09;5066607;28;20083;-64
2024/02/26 04:35:51;;;;;;;22.27;3.17;;;;;;;10.44;100.00;98482.16;5068027;28;20040;-64
2024/02/26 04:38:19;;;;;;;19.02;3.47;;;;;;;10.29;100.00;98483.03;5066644;28;20050;-65
2024/02/26 04:40:46;;;;;;;22.75;3.90;;;;;;;10.29;100.00;98490.53;5068155;28;20048;-64
2024/02/26 04:43:14;;;;;;;23.83;3.85;;;;;;;10.40;100.00;98488.72;5067003;28;20052;-63
2024/02/26 04:45:41;;;;;;;13.95;2.83;;;;;;;10.40;100.00;98492.28;5051253;28;20467;-64
2024/02/26 04:48:09;;;;;;;22.35;4.05;;;;;;;10.21;100.00;98495.09;5088518;28;20066;-70
2024/02/26 04:50:36;;;;;;;21.17;3.85;;;;;;;10.49;100.00;98494.81;5088739;28;20059;-65
2024/02/26 04:53:04;;;;;;;21.80;3.85;;;;;;;10.73;100.00;98488.91;5070189;28;20491;-63
2024/02/26 04:55:31;;;;;;;19.58;3.63;;;;;;;10.43;100.00;98497.06;5088370;28;20530;-65
2024/02/26 04:57:58;;;;;;;19.90;4.07;;;;;;;10.39;100.00;98504.44;5069310;28;20056;-65
2024/02/26 05:00:25;;;;;;;16.48;3.65;;;;;;;10.27;100.00;98501.09;5068112;28;20056;-65
2024/02/26 05:02:53;;;;;;;17.48;3.53;;;;;;;10.46;100.00;98512.06;5067674;28;20049;-64
2024/02/26 05:05:21;;;;;;;21.02;3.97;;;;;;;10.62;100.00;98513.50;5065701;28;20057;-67
2024/02/26 05:07:48;;;;;;;21.13;3.70;;;;;;;10.31;100.00;98512.94;5067770;28;20052;-64
2024/02/26 05:10:15;;;;;;;27.05;4.07;;;;;;;10.26;100.00;98521.50;5068143;28;20062;-65
2024/02/26 05:12:43;;;;;;;18.92;3.83;;;;;;;10.34;100.00;98528.75;5065799;28;20067;-64
2024/02/26 05:15:10;;;;;;;20.25;3.72;;;;;;;10.37;100.00;98525.25;5049540;28;20098;-65
2024/02/26 05:17:38;;;;;;;14.65;2.90;;;;;;;10.41;100.00;98528.88;5065903;28;20484;-65
2024/02/26 05:20:07;;;;;;;19.23;3.28;;;;;;;10.26;100.00;98536.06;5047880;28;20815;-64
2024/02/26 05:22:35;;;;;;;14.75;3.85;;;;;;;9.95;100.00;98534.25;5067527;28;20053;-64
2024/02/26 05:25:03;;;;;;;14.95;3.00;;;;;;;10.23;100.00;98534.03;5066632;28;20052;-65
2024/02/26 05:27:31;;;;;;;18.98;3.42;;;;;;;10.38;100.00;98548.84;5070948;28;20048;-65
2024/02/26 05:29:58;;;;;;;24.13;3.75;;;;;;;10.39;100.00;98547.69;5069565;28;20055;-64
2024/02/26 05:32:25;;;;;;;21.70;3.70;;;;;;;10.30;100.00;98541.63;5069235;28;20571;-65
2024/02/26 05:34:53;;;;;;;16.17;3.38;;;;;;;10.30;100.00;98542.44;5071002;28;20056;-64
2024/02/26 05:37:20;;;;;;;20.30;3.78;;;;;;;10.33;100.00;98551.91;5069274;28;20064;-65
2024/02/26 05:39:48;;;;;;;18.35;3.65;;;;;;;10.40;100.00;98552.84;5071169;28;20059;-65
2024/02/26 05:42:15;;;;;;;22.35;3.38;;;;;;;10.42;100.00;98558.78;5070798;28;20063;-65
2024/02/26 05:44:42;;;;;;;19.52;3.90;;;;;;;10.39;100.00;98561.47;5069386;28;20067;-64
2024/02/26 05:47:10;;;;;;;19.92;3.47;;;;;;;10.26;100.00;98560.81;5068967;28;20048;-64
2024/02/26 05:49:37;;;;;;;21.67;3.60;;;;;;;10.13;100.00;98562.91;5068966;28;20060;-64
2024/02/26 05:52:06;;;;;;;22.63;3.90;;;;;;;10.32;100.00;98564.84;5070820;28;20048;-64
2024/02/26 05:54:33;;;;;;;21.08;3.72;;;;;;;10.18;100.00;98575.59;5068776;28;20056;-65
2024/02/26 05:57:01;;;;;;;18.35;3.38;;;;;;;10.18;100.00;98578.34;5068601;28;20135;-65
2024/02/26 05:59:28;;;;;;;18.67;3.60;;;;;;;10.09;100.00;98578.53;5070682;28;20052;-64
2024/02/26 06:01:56;;;;;;;20.75;3.75;;;;;;;10.13;100.00;98586.88;5068073;28;20048;-64
2024/02/26 06:04:23;;;;;;;19.48;3.15;;;;;;;10.18;100.00;98592.88;5070082;28;20044;-64
2024/02/26 06:06:50;;;;;;;20.55;3.78;;;;;;;10.52;100.00;98588.44;5084644;28;20680;-63
2024/02/26 06:09:18;;;;;;;22.00;4.25;;;;;;;10.51;100.00;98586.88;5068211;28;20048;-64
2024/02/26 06:11:45;;;;;;;20.35;3.85;;;;;;;10.37;100.00;98588.53;5068315;28;20067;-63
2024/02/26 06:14:17;;;;;;;22.15;3.80;;;;;;;10.34;100.00;98592.03;5070631;28;20068;-63
2024/02/26 06:16:45;;;;;;;18.50;3.38;;;;;;;10.33;100.00;98604.97;5067645;28;20065;-65
2024/02/26 06:19:12;;;;;;;20.38;4.28;;;;;;;10.42;100.00;98611.06;5067441;28;20198;-64
2024/02/26 06:21:40;;;;;;;19.05;3.72;;;;;;;10.56;100.00;98610.53;5069884;28;20048;-64
2024/02/26 06:24:08;;;;;;;22.30;3.88;;;;;;;10.47;100.00;98621.78;5051919;28;20054;-64
2024/02/26 06:26:36;;;;;;;26.52;4.18;;;;;;;10.44;100.00;98622.50;5064932;28;20053;-65
2024/02/26 06:29:03;;;;;;;16.45;3.60;;;;;;;10.29;100.00;98628.88;5049593;28;20057;-66
2024/02/26 06:31:30;;;;;;;18.15;3.97;;;;;;;10.17;100.00;98631.75;5047990;28;20152;-68
2024/02/26 06:33:57;;;;;;;15.25;3.45;;;;;;;10.09;100.00;98630.03;5048907;28;20049;-68
2024/02/26 06:36:25;;;;;;;19.10;3.78;;;;;;;10.27;100.00;98633.16;5047960;28;20057;-64
2024/02/26 06:38:53;;;;;;;21.05;4.25;;;;;;;10.40;100.00;98634.59;5047825;28;20053;-64
2024/02/26 06:41:27;;;;;;;20.45;4.75;;;;;;;10.35;100.00;98634.88;5058332;28;20051;-65
2024/02/26 06:43:54;;;;;;;17.33;4.82;;;;;;;10.33;100.00;98643.50;5049421;28;20049;-65
2024/02/26 06:46:25;;;;;;;25.95;5.45;;;;;;;10.52;100.00;98642.69;5049481;28;20551;-65
2024/02/26 06:48:53;;;;;;;22.42;5.38;;;;;;;10.33;100.00;98640.75;5067886;28;20064;-65
2024/02/26 06:51:22;;;;;;;18.88;4.85;;;;;;;10.48;100.00;98652.84;5067931;28;20072;-65
2024/02/26 06:53:50;;;;;;;25.90;7.15;;;;;;;10.52;100.00;98657.25;5069246;28;20052;-64
2024/02/26 06:56:17;;;;;;;23.88;7.40;;;;;;;10.45;100.00;98661.81;5067482;28;20064;-65
2024/02/26 06:58:45;;;;;;;22.42;6.03;;;;;;;10.69;100.00;98661.50;5068061;28;20064;-67
2024/02/26 07:01:12;;;;;;;21.98;5.47;;;;;;;10.31;100.00;98659.56;5067802;28;20077;-65
2024/02/26 07:03:41;;;;;;;19.00;5.60;;;;;;;10.25;100.00;98674.00;5068957;28;20416;-64
2024/02/26 07:06:09;;;;;;;22.98;5.05;;;;;;;10.32;100.00;98671.38;5067597;28;20591;-64
2024/02/26 07:08:36;;;;;;;22.10;6.38;;;;;;;10.33;100.00;98681.22;5069416;28;20064;-65
2024/02/26 07:11:07;;;;;;;19.88;5.78;;;;;;;10.41;100.00;98685.75;5051695;28;20044;-64
2024/02/26 07:13:35;;;;;;;17.77;5.53;;;;;;;10.32;100.00;98688.66;5051630;28;20558;-64
2024/02/26 07:16:03;;;;;;;20.42;6.15;;;;;;;10.22;100.00;98696.72;5067835;28;20061;-64
2024/02/26 07:18:30;;;;;;;20.88;6.50;;;;;;;10.45;100.00;98701.16;5051093;28;20053;-65
2024/02/26 07:21:01;;;;;;;28.13;6.32;;;;;;;10.37;100.00;98704.94;5068640;28;20057;-65
2024/02/26 07:23:29;;;;;;;27.05;6.68;;;;;;;10.45;100.00;98714.09;5077593;28;20055;-66
2024/02/26 07:25:57;;;;;;;31.25;7.35;;;;;;;10.45;100.00;98714.09;5089327;28;20052;-65
2024/02/26 07:28:24;;;;;;;28.45;7.50;;;;;;;10.32;100.00;98721.69;5087504;28;20066;-64
2024/02/26 07:30:52;;;;;;;30.27;7.60;;;;;;;10.35;100.00;98721.00;5086864;28;20055;-65
2024/02/26 07:33:19;;;;;;;31.38;13.05;;;;;;;10.58;100.00;98721.09;5087295;28;20060;-65
2024/02/26 07:35:47;;;;;;;22.83;7.00;;;;;;;10.52;100.00;98728.81;5082463;28;20049;-64
2024/02/26 07:38:15;;;;;;;20.73;6.38;;;;;;;10.67;100.00;98729.94;5068144;28;20056;-65
2024/02/26 07:40:58;;;;;;;24.95;7.47;;;;;;;10.49;100.00;98737.81;5068483;28;20437;-64
2024/02/26 07:43:30;;;;;;;24.15;5.97;;;;;;;10.77;100.00;98738.41;5066736;28;20052;-64
2024/02/26 07:45:57;;;;;;;22.98;6.35;;;;;;;10.70;100.00;98738.25;5060132;28;20052;-65
2024/02/26 07:48:25;;;;;;;21.77;5.40;;;;;;;10.73;100.00;98745.00;5061409;28;20049;-65
2024/02/26 07:50:52;;;;;;;20.98;5.43;;;;;;;10.52;100.00;98739.84;5067360;28;20057;-65
2024/02/26 07:53:20;;;;;;;21.55;5.30;;;;;;;10.47;100.00;98748.38;5082730;28;20058;-66
2024/02/26 07:55:47;;;;;;;25.65;5.78;;;;;;;10.39;100.00;98749.38;5068390;28;20048;-64
2024/02/26 07:58:15;;;;;;;20.30;5.50;;;;;;;10.75;100.00;98757.25;5067459;28;20075;-65
2024/02/26 08:00:43;;;;;;;23.15;5.63;;;;;;;10.95;100.00;98758.03;5057086;28;20805;-64
2024/02/26 08:03:11;;;;;;;21.40;6.65;;;;;;;11.04;100.00;98756.66;5061168;28;20044;-64
2024/02/26 08:05:40;;;;;;;25.08;6.22;;;;;;;10.69;100.00;98764.19;5060784;28;20514;-63
2024/02/26 08:08:07;;;;;;;25.50;5.97;;;;;;;10.79;100.00;98771.09;5065450;28;20051;-64
2024/02/26 08:10:35;;;;;;;16.42;5.00;;;;;;;10.79;100.00;98771.09;5064723;28;20053;-63
2024/02/26 08:13:05;;;;;;;15.05;4.80;;;;;;;11.09;100.00;98774.84;5061138;28;20061;-65
2024/02/26 08:15:34;;;;;;;15.60;5.20;;;;;;;11.18;100.00;98780.94;5061242;28;20662;-64
2024/02/26 08:18:03;;;;;;;17.60;5.47;;;;;;;11.23;100.00;98786.94;5060512;28;20049;-64
2024/02/26 08:20:32;;;;;;;31.90;14.23;;;;;;;11.04;100.00;98784.19;5057550;28;20579;-66
2024/02/26 08:22:59;;;;;;;30.27;14.23;;;;;;;10.85;100.00;98781.44;5055881;28;20056;-64
2024/02/26 08:25:26;;;;;;;18.77;5.68;;;;;;;10.72;100.00;98787.47;5060726;28;20752;-65
2024/02/26 08:27:54;;;;;;;19.63;5.45;;;;;;;10.95;100.00;98796.59;5058305;28;20063;-64
2024/02/26 08:30:21;;;;;;;19.95;5.25;;;;;;;10.88;100.00;98797.25;5063966;28;20051;-64
2024/02/26 08:32:49;;;;;;;20.73;5.93;;;;;;;10.80;100.00;98789.19;5066005;28;20055;-64
2024/02/26 08:35:19;;;;;;;21.05;8.10;;;;;;;10.80;100.00;98797.47;5054870;28;20052;-65
2024/02/26 08:37:47;;;;;;;13.65;5.88;;;;;;;10.89;100.00;98803.56;5055035;28;20052;-65
2024/02/26 08:40:15;;;;;;;17.48;5.63;;;;;;;10.83;100.00;98805.78;5064768;28;20072;-64
2024/02/26 08:42:42;;;;;;;19.50;6.22;;;;;;;10.83;100.00;98810.50;5066666;28;20056;-65
2024/02/26 08:45:10;;;;;;;22.58;6.65;;;;;;;11.01;100.00;98815.25;5053739;28;20772;-64
2024/02/26 08:47:40;;;;;;;19.10;6.97;;;;;;;10.82;100.00;98820.75;5054534;28;20764;-63
2024/02/26 08:50:10;;;;;;;21.48;6.35;;;;;;;10.81;100.00;98830.13;5054231;28;20065;-66
2024/02/26 08:52:40;;;;;;;21.63;6.40;;;;;;;10.85;100.00;98827.47;5066508;28;20067;-64
2024/02/26 08:55:08;;;;;;;19.17;5.13;;;;;;;10.79;100.00;98828.94;5067230;28;20052;-65
2024/02/26 08:57:36;;;;;;;19.83;5.55;;;;;;;10.44;100.00;98848.19;5065501;28;20049;-65
2024/02/26 09:00:05;;;;;;;15.13;5.32;;;;;;;10.39;100.00;98851.19;5056386;28;20048;-65
2024/02/26 09:02:38;;;;;;;18.60;5.50;;;;;;;10.44;100.00;98852.91;5078017;28;20060;-64
2024/02/26 09:05:06;;;;;;;19.92;5.05;;;;;;;10.46;100.00;98856.09;5072897;28;20059;-65
2024/02/26 09:07:33;;;;;;;19.30;5.78;;;;;;;10.38;100.00;98862.56;5085131;28;20044;-64
2024/02/26 09:10:01;;;;;;;19.02;5.78;;;;;;;10.49;100.00;98867.19;5071629;28;20056;-65
2024/02/26 09:12:28;;;;;;;17.55;5.10;;;;;;;10.42;100.00;98866.22;5082286;28;20048;-65
2024/02/26 09:14:57;;;;;;;22.88;6.45;;;;;;;10.45;100.00;98871.81;5087347;28;20056;-64
2024/02/26 09:17:24;;;;;;;21.88;6.05;;;;;;;10.44;100.00;98875.72;5070762;28;20052;-64
2024/02/26 09:19:51;;;;;;;21.27;7.07;;;;;;;10.39;100.00;98881.47;5064132;28;20052;-64
2024/02/26 09:22:19;;;;;;;19.50;5.88;;;;;;;10.60;100.00;98881.97;5065653;28;20057;-64
2024/02/26 09:24:47;;;;;;;19.58;5.93;;;;;;;10.44;100.00;98886.72;5078800;28;20049;-64
2024/02/26 09:27:14;;;;;;;16.33;6.35;;;;;;;10.57;100.00;98890.16;5035425;28;20052;-64
2024/02/26 09:29:41;;;;;;;19.05;6.55;;;;;;;10.70;100.00;98891.66;5069626;28;20170;-64
2024/02/26 09:32:09;;;;;;;22.17;5.30;;;;;;;10.60;100.00;98895.75;5068779;28;20047;-62
2024/02/26 09:34:40;;;;;;;19.23;5.10;;;;;;;10.70;100.00;98900.72;5067359;28;20048;-64
2024/02/26 09:37:07;;;;;;;17.33;4.40;;;;;;;10.70;100.00;98902.66;5067404;28;20056;-63
2024/02/26 09:39:47;;;;;;;16.15;4.88;;;;;;;10.52;100.00;98899.50;5067339;28;20059;-63
2024/02/26 09:42:18;;;;;;;17.15;4.57;;;;;;;10.84;100.00;98903.81;5071780;28;20059;-64
2024/02/26 09:44:46;;;;;;;16.15;4.93;;;;;;;10.84;100.00;98914.00;5070961;28;20048;-66
2024/02/26 09:47:20;;;;;;;17.50;4.50;;;;;;;10.93;100.00;98922.88;5068546;28;20048;-63
2024/02/26 09:49:48;;;;;;;31.80;16.23;;;;;;;10.99;100.00;98915.91;5079118;28;20040;-64
2024/02/26 09:52:19;;;;;;;17.85;5.10;;;;;;;11.22;100.00;98922.34;5071085;28;20048;-65
2024/02/26 09:54:50;;;;;;;12.77;3.85;;;;;;;11.20;100.00;98925.47;5069387;28;20056;-64
2024/02/26 09:57:24;;;;;;;21.13;5.07;;;;;;;11.07;100.00;98937.75;5064112;28;20053;-65
2024/02/26 09:59:54;;;;;;;13.23;3.97;;;;;;;10.82;100.00;98930.09;5054399;28;20052;-65
2024/02/26 10:02:22;;;;;;;17.23;3.72;;;;;;;11.03;100.00;98936.91;5058277;28;20076;-65
2024/02/26 10:04:50;;;;;;;15.48;3.78;;;;;;;11.00;100.00;98943.09;5065332;28;20055;-64
2024/02/26 10:07:20;;;;;;;17.00;4.25;;;;;;;10.99;100.00;98947.03;5079284;28;20060;-63
2024/02/26 10:09:48;;;;;;;16.67;3.88;;;;;;;10.91;100.00;98961.00;5053100;28;20053;-65
2024/02/26 10:12:17;;;;;;;15.52;3.58;;;;;;;10.78;100.00;98962.25;5058288;28;20051;-63
2024/02/26 10:14:44;;;;;;;12.75;3.75;;;;;;;10.88;100.00;98970.00;5043552;28;20617;-62
2024/02/26 10:17:12;;;;;;;12.68;3.90;;;;;;;11.08;100.00;98966.94;5060869;28;20048;-64
2024/02/26 10:19:40;;;;;;;15.05;3.70;;;;;;;11.07;100.00;98964.53;5067611;28;20605;-64
2024/02/26 10:22:08;;;;;;;12.73;3.67;;;;;;;11.15;100.00;98977.31;5062548;28;20053;-64
2024/02/26 10:24:37;;;;;;;16.05;3.40;;;;;;;10.88;100.00;98981.00;5066030;28;20048;-63
2024/02/26 10:27:04;;;;;;;14.75;4.20;;;;;;;11.09;100.00;98984.22;5069081;28;20499;-64
2024/02/26 10:29:32;;;;;;;14.55;3.78;;;;;;;11.09;100.00;98982.28;5050738;28;20044;-64
2024/02/26 10:31:59;;;;;;;12.60;3.30;;;;;;;10.97;100.00;98985.16;5070000;28;20415;-64
2024/02/26 10:34:28;;;;;;;14.73;4.88;;;;;;;11.07;100.00;98986.56;5082340;28;20074;-65
2024/02/26 10:36:55;;;;;;;13.43;3.30;;;;;;;11.12;100.00;98995.34;5078349;28;20514;-63
2024/02/26 10:39:24;;;;;;;11.90;3.15;;;;;;;11.07;100.00;98995.63;5047241;28;20048;-64
2024/02/26 10:41:51;;;;;;;12.73;3.10;;;;;;;11.00;100.00;98998.22;5068918;28;20051;-64
2024/02/26 10:44:19;;;;;;;11.35;3.47;;;;;;;11.07;100.00;99001.13;5062567;28;20064;-64
2024/02/26 10:46:49;;;;;;;13.68;3.80;;;;;;;11.20;100.00;99005.38;5056102;28;20057;-63
2024/02/26 10:49:19;;;;;;;17.15;4.65;;;;;;;11.25;100.00;99007.06;5063421;28;20778;-65
2024/02/26 10:51:55;;;;;;;12.63;4.30;;;;;;;10.96;100.00;99016.63;5059717;28;20049;-64
2024/02/26 10:54:25;;;;;;;14.32;4.60;;;;;;;10.73;100.00;99015.66;5068124;28;20052;-63
2024/02/26 10:56:53;;;;;;;13.38;3.83;;;;;;;10.86;100.00;99019.13;5068511;28;20052;-65
2024/02/26 10:59:22;;;;;;;15.10;4.15;;;;;;;11.03;100.00;99033.34;5066490;28;20047;-65
2024/02/26 11:01:50;;;;;;;15.05;5.00;;;;;;;11.09;100.00;99033.84;5059065;28;20053;-65
2024/02/26 11:04:20;;;;;;;16.77;4.63;;;;;;;10.86;100.00;99036.44;5056813;28;20060;-64
2024/02/26 11:06:49;;;;;;;14.65;4.10;;;;;;;10.81;100.00;99044.19;5064201;28;20056;-64
2024/02/26 11:09:17;;;;;;;12.82;3.78;;;;;;;10.87;100.00;99046.31;5046186;28;20052;-66
2024/02/26 11:11:46;;;;;;;13.65;3.70;;;;;;;10.87;100.00;99051.00;5067060;28;20424;-63
2024/02/26 11:14:14;;;;;;;13.35;4.28;;;;;;;10.98;100.00;99050.09;5051024;28;20048;-64
2024/02/26 11:16:42;;;;;;;16.35;3.53;;;;;;;10.89;100.00;99048.69;5059504;28;20061;-65
2024/02/26 11:19:10;;;;;;;11.90;3.67;;;;;;;10.79;100.00;99052.00;5070540;28;20052;-64
2024/02/26 11:21:40;;;;;;;8.85;2.72;;;;;;;10.86;100.00;99052.16;5044117;28;20049;-64
2024/02/26 11:24:09;;;;;;;10.18;3.00;;;;;;;10.87;100.00;99054.56;5063239;28;20052;-64